Aérodrome :
LOGIN :

S'inscrire | Disclaimer

   EN    FR    IT 

 










Légende :    VFR   VFR Marginal   IFR   IFR Intensif   IFR Très Intensif
Visi : 
Plafond : 
>= 8 km
>= 3000ft
5 à 8 km
1000 à 3000 ft
1500m à 5 km
500 à 1000 ft
800 à 1500m
200 à 500 ft
< 800m
< 200 ft
Symboles :   Orages  Brouillard  Fortes neiges  Fortes précipitations  Vent > 20 kt
SIGMETs :   Divers  Orages  Givrage  Turbulence  Onde Orograph.  Cendres Volcan.






- Altitude de l'aérodrome : 13 ft
- Code IATA : GOA


LIMJ - Genoa Cristoforo Colombo

DERNIER METAR :
  • 151350Z 16012KT 9000 FEW012 SCT014 BKN035 19/16 Q1010

METARs EXPIRÉS :
  • 151320Z 17011KT 8000 -RA FEW012CB SCT014 BKN030 19/17 Q1009 RETSRA
  • 151250Z 15012KT 5000 TSRA BR FEW007 BKN012CB OVC030 20/18 Q1009
  • 151220Z 14020KT 4000 RA BR VCSH SCT007 BKN012CB OVC030 21/19 Q1010
  • 151150Z 15024G34KT 5000 RA BR VCSH SCT007 BKN012CB OVC030 21/19 Q1010
  • 151120Z 14027KT 6000 SCT007 BKN014 OVC030 21/19 Q1010

TAF TAF LIMJ
Valide du 15 à 12h jusqu'au 16 à 12h UTC


151100Z 1512/1612 12015KT 8000 SCT020 BKN040
TEMPO 1512/1516 12018G32KT 3000 TSRA BKN010CB OVC030
BECMG 1516/1518 19010KT
BECMG 1603/1605 04006KT



MET'MAP, la Météo Aéronautique d'un coup d'oeil ! - Copyright ORBIFLY Décembre 2007 - Disclaimer

ORBIFLY MET'MAP TEAM :

Programmation & Développement : Alexandra Zaïnal
Conception & Développement : Baudouin d'Aumeries
Co-Programmation & Développement : Marc-Olivier Méhu
Soutien technique & logistique : Manuel Goepfert

Contact : metmap@orbifly.com




SOURCES & CREDITS :

   NOAA